Nixa, Missouri
Current Conditions -  °F | °C
As of 7:52 PM on Friday 28 Nov 2014 (Local Time) from KSGF Reporting Station
Clear Clear  
Wind Chill: 50°   Ceiling: Unl
Heat Index: 50°   Visibility: 10mi
Dew Point: 35°   Wind: 9mph
Humidity: 57%   Direction: 170°S
Pressure: 29.9"   Gusts: NA
Location:  37.04°N, 93.29°W
Report Text: KSGF 290152Z 17008KT 10SM CLR 10/02 A2990 RMK AO2 SLP129 T01000017
Loading
Personal Weather Stations






























Interactive Weather Map New forecast layout! Learn more

10-Day Weather Forecast

Advertisements
Track Severe Weather on mobile